Terminal Aerodrome Forecast
Issued by NWS Wilmington, OH

Current Version | Previous Version | Text Only | Print | Product List | Glossary Off
Versions: 1 2 3 4 5 6 7 8 9 10 11 12 13 14 15 16 17 18 19 20 21 22 23 24 25 26

000
FTUS41 KILN 291955 AAC
TAFILN
TAF AMD
KILN 291955Z 2920/3018 16007KT P6SM VCTS BKN035CB
      TEMPO 2920/2921 1SM TSRA BR BKN015CB
     FM292300 29007KT P6SM SCT120
     FM300600 34006KT P6SM SCT020
     FM301400 31007KT P6SM FEW035=

USA.gov is the U.S. government's official web portal to all federal, state and local government web resources and services.